Time;durP1;ratioP1;P1;durP2;ratioP2;P2;SDS_P1;SDS_P2;PMS_P1;PMS_P2;Temp;Humidity;BMP_temperature;BMP_pressure;BME280_temperature;BME280_humidity;BME280_pressure;Samples;Min_cycle;Max_cycle;Signal;HPM_P1;HPM_P2
2023/07/11 00:00:49;;;;;;;7.30;2.40;;;;;;;15.40;100.00;99978.48;109037;1258;59750;-64
2023/07/11 00:03:38;;;;;;;6.90;2.40;;;;;;;15.31;99.88;99963.22;109152;1258;72393;-64
2023/07/11 00:06:26;;;;;;;5.60;1.90;;;;;;;15.23;99.99;99957.21;109097;1258;67918;-62
2023/07/11 00:09:14;;;;;;;5.60;2.00;;;;;;;15.16;99.45;99957.61;109069;1258;72520;-62
2023/07/11 00:12:02;;;;;;;5.90;2.20;;;;;;;15.10;98.40;99956.60;109076;1258;58090;-63
2023/07/11 00:14:50;;;;;;;7.40;2.10;;;;;;;15.04;98.30;99954.60;109114;1257;58927;-63
2023/07/11 00:17:40;;;;;;;6.00;2.20;;;;;;;15.00;98.45;99959.15;109067;1257;72703;-62
2023/07/11 00:20:27;;;;;;;5.90;2.20;;;;;;;14.95;98.64;99959.60;109079;1257;68673;-64
2023/07/11 00:23:15;;;;;;;8.40;2.10;;;;;;;14.89;98.99;99950.39;109133;1257;72730;-64
2023/07/11 00:26:03;;;;;;;6.60;2.10;;;;;;;14.88;99.56;99952.11;108844;1257;233965;-63
2023/07/11 00:28:52;;;;;;;6.20;2.20;;;;;;;14.86;99.40;99946.98;109098;1257;59414;-63
2023/07/11 00:31:40;;;;;;;5.90;2.00;;;;;;;14.83;99.47;99944.55;109126;1257;73004;-61
2023/07/11 00:34:31;;;;;;;6.00;2.10;;;;;;;14.78;99.21;99937.66;109060;1257;67994;-63
2023/07/11 00:37:18;;;;;;;5.80;2.00;;;;;;;14.74;99.30;99935.34;109074;1257;72774;-64
2023/07/11 00:40:06;;;;;;;6.10;2.00;;;;;;;14.72;99.23;99939.73;109125;1257;59628;-63
2023/07/11 00:42:54;;;;;;;6.90;2.10;;;;;;;14.71;99.82;99939.48;109153;1257;60037;-65
2023/07/11 00:46:18;;;;;;;7.80;2.00;;;;;;;14.67;99.99;99933.45;109043;1260;74064;-63
2023/07/11 00:49:12;;;;;;;7.10;2.30;;;;;;;14.64;100.00;99925.31;109143;1257;68066;-63
2023/07/11 00:52:01;;;;;;;5.90;2.10;;;;;;;14.64;100.00;99921.58;109062;1257;71712;-63
2023/07/11 00:54:58;;;;;;;5.60;2.00;;;;;;;14.64;100.00;99918.70;109005;1257;59666;-63
2023/07/11 00:57:47;;;;;;;6.00;2.30;;;;;;;14.63;100.00;99916.10;109091;1259;60098;-67
2023/07/11 01:00:35;;;;;;;5.80;1.90;;;;;;;14.61;100.00;99905.54;109056;1257;74123;-62
2023/07/11 01:03:24;;;;;;;6.80;2.10;;;;;;;14.62;100.00;99907.78;109103;1257;68980;-61
2023/07/11 01:06:21;;;;;;;6.20;2.20;;;;;;;14.62;100.00;99909.77;109017;1257;72726;-62
2023/07/11 01:09:13;;;;;;;5.90;2.00;;;;;;;14.63;100.00;99914.14;109015;1257;59596;-62
2023/07/11 01:12:13;;;;;;;5.70;2.10;;;;;;;14.66;100.00;99919.92;109063;1257;59209;-64
2023/07/11 01:15:05;;;;;;;6.70;2.00;;;;;;;14.71;100.00;99924.33;109078;1257;74191;-64
2023/07/11 01:17:53;;;;;;;6.00;2.10;;;;;;;14.73;100.00;99927.30;109150;1257;66509;-62
2023/07/11 01:20:44;;;;;;;6.00;2.20;;;;;;;14.75;100.00;99918.29;109095;1258;72672;-63
2023/07/11 01:23:33;;;;;;;5.90;2.10;;;;;;;14.78;100.00;99919.48;109099;1257;58292;-64
2023/07/11 01:26:21;;;;;;;7.30;2.20;;;;;;;14.80;100.00;99922.29;109164;1257;58868;-63
2023/07/11 01:29:11;;;;;;;8.50;2.50;;;;;;;14.84;100.00;99927.89;109047;1257;73143;-64
2023/07/11 01:32:00;;;;;;;6.30;2.40;;;;;;;14.90;100.00;99931.20;109047;1257;68841;-62
2023/07/11 01:34:48;;;;;;;6.10;2.30;;;;;;;14.93;100.00;99934.31;109051;1257;73535;-64
2023/07/11 01:37:37;;;;;;;6.80;2.70;;;;;;;14.96;100.00;99939.71;109128;1257;58696;-61
2023/07/11 01:40:25;;;;;;;6.50;2.10;;;;;;;14.98;100.00;99944.80;109059;1257;60091;-63
2023/07/11 01:43:16;;;;;;;6.40;2.50;;;;;;;15.00;100.00;99947.89;109118;1257;74390;-62
2023/07/11 01:46:04;;;;;;;7.70;2.40;;;;;;;15.00;100.00;99945.41;109161;1257;67562;-63
2023/07/11 01:48:52;;;;;;;6.10;2.40;;;;;;;15.00;100.00;99937.90;108997;1257;72532;-63
2023/07/11 01:51:45;;;;;;;7.50;2.60;;;;;;;15.00;100.00;99935.40;109095;1257;59567;-66
2023/07/11 01:54:35;;;;;;;7.00;2.60;;;;;;;15.00;100.00;99928.40;109089;1257;58842;-64
2023/07/11 01:57:23;;;;;;;7.10;2.50;;;;;;;15.01;100.00;99927.80;109057;1257;72427;-62
2023/07/11 02:00:13;;;;;;;5.90;2.30;;;;;;;15.04;100.00;99928.96;109087;1257;67886;-62
2023/07/11 02:03:11;;;;;;;6.10;2.40;;;;;;;15.05;100.00;99925.04;109059;1257;72564;-63
2023/07/11 02:05:59;;;;;;;6.90;2.60;;;;;;;15.06;100.00;99923.87;109101;1257;59025;-63
2023/07/11 02:08:50;;;;;;;6.70;2.60;;;;;;;15.06;100.00;99927.63;109142;1257;60294;-62
2023/07/11 02:11:38;;;;;;;6.70;2.60;;;;;;;15.06;100.00;99927.79;109012;1257;73834;-64
2023/07/11 02:14:26;;;;;;;6.60;2.60;;;;;;;15.08;100.00;99927.78;109111;1257;67730;-62
2023/07/11 02:17:17;;;;;;;8.00;2.90;;;;;;;15.08;100.00;99926.06;109122;1257;72788;-62
2023/07/11 02:20:09;;;;;;;7.10;2.80;;;;;;;15.08;100.00;99921.42;109093;1257;60355;-62
2023/07/11 02:23:02;;;;;;;6.90;2.60;;;;;;;15.07;100.00;99921.90;109064;1257;61374;-62
2023/07/11 02:25:55;;;;;;;6.90;2.80;;;;;;;15.05;100.00;99919.77;109018;1257;74935;-64
2023/07/11 02:28:43;;;;;;;7.30;2.90;;;;;;;15.06;100.00;99914.99;109020;1257;68878;-62
2023/07/11 02:31:39;;;;;;;7.50;2.80;;;;;;;15.05;100.00;99916.63;109098;1257;72394;-64
2023/07/11 02:34:35;;;;;;;7.90;3.10;;;;;;;15.06;100.00;99920.91;109078;1257;59574;-62
2023/07/11 02:37:23;;;;;;;8.00;2.80;;;;;;;15.06;100.00;99931.95;109180;1257;59160;-63
2023/07/11 02:40:14;;;;;;;6.70;2.90;;;;;;;15.11;100.00;99949.67;109071;1257;74377;-63
2023/07/11 02:43:02;;;;;;;8.00;2.90;;;;;;;15.14;100.00;99959.42;109079;1257;67891;-63
2023/07/11 02:45:49;;;;;;;6.90;2.80;;;;;;;15.16;100.00;99957.75;109125;1257;73676;-62
2023/07/11 02:48:37;;;;;;;7.10;2.90;;;;;;;15.19;100.00;99957.64;109119;1257;61046;-62
2023/07/11 02:51:26;;;;;;;7.10;2.80;;;;;;;15.22;100.00;99956.64;109103;1257;58868;-61
2023/07/11 02:54:14;;;;;;;7.40;3.00;;;;;;;15.27;100.00;99957.59;109115;1257;74126;-64
2023/07/11 02:57:06;;;;;;;7.20;3.00;;;;;;;15.25;100.00;99946.48;109075;1257;66619;-62
2023/07/11 02:59:56;;;;;;;7.90;3.00;;;;;;;15.25;100.00;99945.83;109079;1257;73798;-63
2023/07/11 03:02:45;;;;;;;6.60;2.70;;;;;;;15.27;100.00;99946.65;109022;1257;60587;-62
2023/07/11 03:05:41;;;;;;;7.90;3.10;;;;;;;15.32;100.00;99946.67;109063;1257;60317;-65
2023/07/11 03:08:29;;;;;;;7.10;2.90;;;;;;;15.35;100.00;99943.95;109081;1257;73759;-62
2023/07/11 03:11:19;;;;;;;7.10;2.90;;;;;;;15.31;100.00;99942.68;109140;1257;68909;-65
2023/07/11 03:14:09;;;;;;;6.40;3.10;;;;;;;15.28;100.00;99943.55;109004;1256;72776;-65
2023/07/11 03:16:58;;;;;;;7.00;2.90;;;;;;;15.26;100.00;99943.40;109079;1257;60288;-62
2023/07/11 03:19:46;;;;;;;7.70;3.00;;;;;;;15.27;100.00;99946.70;109120;1257;60190;-62
2023/07/11 03:22:33;;;;;;;7.00;3.40;;;;;;;15.29;100.00;99944.77;109140;1257;71824;-63
2023/07/11 03:25:22;;;;;;;7.40;3.20;;;;;;;15.36;100.00;99946.89;109088;1257;68702;-62
2023/07/11 03:28:10;;;;;;;8.70;3.00;;;;;;;15.43;100.00;99944.90;109141;1257;72717;-64
2023/07/11 03:30:58;;;;;;;7.30;3.40;;;;;;;15.49;100.00;99941.99;108903;1256;57946;-64
2023/07/11 03:33:46;;;;;;;7.20;3.30;;;;;;;15.55;100.00;99943.51;109070;1258;61441;-65
2023/07/11 03:36:34;;;;;;;7.80;3.40;;;;;;;15.59;100.00;99942.56;109015;1257;72988;-65
2023/07/11 03:39:24;;;;;;;8.40;3.80;;;;;;;15.61;100.00;99944.11;108981;1257;67952;-64
2023/07/11 03:42:12;;;;;;;9.60;3.50;;;;;;;15.61;100.00;99942.77;109126;1257;72373;-64
2023/07/11 03:44:59;;;;;;;9.10;3.40;;;;;;;15.63;100.00;99945.01;108968;1257;60435;-64
2023/07/11 03:47:48;;;;;;;10.20;4.10;;;;;;;15.60;100.00;99940.11;109093;1257;60530;-63
2023/07/11 03:50:36;;;;;;;11.80;3.50;;;;;;;15.65;100.00;99949.51;108995;1257;74023;-64
2023/07/11 03:53:24;;;;;;;8.40;3.20;;;;;;;15.64;100.00;99947.25;109005;1257;67898;-65
2023/07/11 03:56:12;;;;;;;9.70;3.80;;;;;;;15.65;100.00;99949.45;108977;1257;72716;-64
2023/07/11 03:59:03;;;;;;;7.90;3.50;;;;;;;15.67;100.00;99949.50;108974;1257;59438;-63
2023/07/11 04:01:51;;;;;;;6.90;3.10;;;;;;;15.69;100.00;99945.75;109132;1257;59585;-63
2023/07/11 04:04:42;;;;;;;7.70;3.30;;;;;;;15.72;100.00;99943.83;109050;1257;73188;-67
2023/07/11 04:07:32;;;;;;;7.90;3.50;;;;;;;15.75;100.00;99943.13;109026;1257;67894;-63
2023/07/11 04:10:20;;;;;;;7.70;3.30;;;;;;;15.79;100.00;99943.46;108948;1257;71145;-64
2023/07/11 04:13:32;;;;;;;8.10;3.30;;;;;;;15.83;100.00;99946.13;109039;1257;59233;-62
2023/07/11 04:16:28;;;;;;;7.70;3.80;;;;;;;15.89;100.00;99947.86;109089;1257;60078;-63
2023/07/11 04:19:16;;;;;;;9.20;3.70;;;;;;;15.94;100.00;99947.27;109067;1257;73015;-65
2023/07/11 04:22:04;;;;;;;8.60;3.80;;;;;;;15.97;100.00;99943.98;109108;1257;68337;-66
2023/07/11 04:24:52;;;;;;;8.30;3.50;;;;;;;16.02;100.00;99945.66;109097;1257;72782;-62
2023/07/11 04:27:42;;;;;;;8.60;3.80;;;;;;;16.07;100.00;99949.21;109021;1258;60571;-61
2023/07/11 04:30:37;;;;;;;9.50;3.60;;;;;;;16.11;100.00;99948.58;109036;1257;60201;-60
2023/07/11 04:33:28;;;;;;;7.80;3.20;;;;;;;16.16;100.00;99946.68;108983;1258;72840;-64
2023/07/11 04:36:16;;;;;;;11.30;3.60;;;;;;;16.19;100.00;99941.71;108848;1260;67905;-65
2023/07/11 04:39:04;;;;;;;9.00;3.80;;;;;;;16.22;100.00;99934.98;108868;1260;72465;-65
2023/07/11 04:41:52;;;;;;;10.20;4.20;;;;;;;16.22;100.00;99930.54;108876;1260;58543;-64
2023/07/11 04:44:40;;;;;;;8.30;3.70;;;;;;;16.23;100.00;99939.86;108919;1260;58007;-64
2023/07/11 04:47:30;;;;;;;8.30;3.70;;;;;;;16.25;100.00;99934.86;108923;1260;73922;-64
2023/07/11 04:50:20;;;;;;;8.90;3.70;;;;;;;16.26;100.00;99928.68;108852;1261;67886;-66
2023/07/11 04:53:08;;;;;;;10.40;4.00;;;;;;;16.30;100.00;99931.94;108858;1260;72536;-66
2023/07/11 04:55:57;;;;;;;8.70;4.30;;;;;;;16.38;100.00;99933.52;108771;1261;59444;-66
2023/07/11 04:58:45;;;;;;;9.20;3.80;;;;;;;16.49;100.00;99937.23;108914;1260;60256;-66
2023/07/11 05:01:34;;;;;;;9.50;4.00;;;;;;;16.60;100.00;99938.73;108945;1261;72863;-65
2023/07/11 05:04:22;;;;;;;8.30;3.90;;;;;;;16.73;100.00;99937.56;108741;1259;67783;-65
2023/07/11 05:07:11;;;;;;;9.20;3.50;;;;;;;16.89;100.00;99933.17;108535;1264;72773;-65
2023/07/11 05:10:00;;;;;;;8.40;4.00;;;;;;;17.25;100.00;99940.62;108635;1264;57984;-65
2023/07/11 05:12:49;;;;;;;8.00;3.60;;;;;;;17.95;98.79;99947.00;108670;1263;58127;-66
2023/07/11 05:15:37;;;;;;;9.30;3.80;;;;;;;18.27;95.70;99953.79;108465;1265;73178;-65
2023/07/11 05:18:25;;;;;;;9.40;3.60;;;;;;;18.44;94.44;99956.29;108678;1264;68879;-67
2023/07/11 05:21:17;;;;;;;7.90;3.60;;;;;;;18.65;92.35;99962.99;108662;1263;71570;-64
2023/07/11 05:24:07;;;;;;;10.30;3.70;;;;;;;18.74;90.41;99961.24;108636;1263;59617;-66
2023/07/11 05:26:56;;;;;;;8.20;3.70;;;;;;;18.75;89.72;99963.83;108454;1267;60924;-67
2023/07/11 05:29:49;;;;;;;8.30;3.80;;;;;;;18.75;90.30;99967.99;108512;1267;73128;-63
2023/07/11 05:32:37;;;;;;;9.90;3.90;;;;;;;18.73;90.74;99969.44;108509;1266;66480;-63
2023/07/11 05:35:26;;;;;;;8.60;3.60;;;;;;;18.85;89.39;99970.97;108475;1267;71827;-64
2023/07/11 05:38:21;;;;;;;7.80;3.30;;;;;;;19.10;87.93;99966.69;108602;1264;58461;-69
2023/07/11 05:41:10;;;;;;;6.90;3.10;;;;;;;19.12;85.28;99962.53;108638;1264;60334;-70
2023/07/11 05:43:58;;;;;;;8.30;3.60;;;;;;;19.03;85.59;99957.96;108748;1261;73439;-68
2023/07/11 05:46:47;;;;;;;16.40;4.30;;;;;;;19.01;86.14;99963.91;108666;1262;66830;-65
2023/07/11 05:49:35;;;;;;;8.70;3.90;;;;;;;19.09;86.97;99958.40;108827;1261;72477;-66
2023/07/11 05:52:24;;;;;;;12.20;4.10;;;;;;;19.24;86.95;99962.22;108804;1261;57928;-67
2023/07/11 05:55:13;;;;;;;10.10;3.80;;;;;;;19.26;87.00;99964.00;108765;1261;59398;-67
2023/07/11 05:58:16;;;;;;;7.70;3.30;;;;;;;19.17;86.55;99967.85;108944;1258;73726;-66
2023/07/11 06:01:05;;;;;;;8.20;3.50;;;;;;;19.07;86.51;99973.35;108987;1257;67714;-61
2023/07/11 06:04:16;;;;;;;9.30;3.90;;;;;;;18.93;86.31;99977.45;108950;1260;71419;-66
2023/07/11 06:07:06;;;;;;;8.80;3.70;;;;;;;18.78;86.17;99976.25;108977;1259;58097;-64
2023/07/11 06:10:00;;;;;;;8.90;4.00;;;;;;;18.68;87.02;99977.23;108941;1258;58766;-63
2023/07/11 06:12:48;;;;;;;8.80;4.10;;;;;;;18.56;86.71;99976.91;109016;1259;72966;-63
2023/07/11 06:15:35;;;;;;;8.40;3.70;;;;;;;18.48;86.95;99975.11;109050;1257;67819;-63
2023/07/11 06:18:32;;;;;;;9.10;4.00;;;;;;;18.45;87.63;99978.02;108975;1257;73715;-65
2023/07/11 06:21:33;;;;;;;8.70;3.90;;;;;;;18.41;87.74;99982.71;109032;1257;59667;-66
2023/07/11 06:24:22;;;;;;;10.20;3.90;;;;;;;18.39;88.36;99984.23;109053;1257;59179;-66
2023/07/11 06:27:10;;;;;;;7.80;3.50;;;;;;;18.38;88.36;99982.64;109112;1260;70876;-64
2023/07/11 06:29:58;;;;;;;8.00;3.70;;;;;;;18.37;88.08;99986.36;108960;1260;66646;-65
2023/07/11 06:32:47;;;;;;;9.40;3.90;;;;;;;18.36;88.29;99984.74;108990;1258;72370;-66
2023/07/11 06:35:55;;;;;;;10.10;3.90;;;;;;;18.30;88.15;99982.13;109014;1258;58755;-68
2023/07/11 06:38:43;;;;;;;8.00;4.10;;;;;;;18.28;88.59;99985.23;109006;1262;60385;-69
2023/07/11 06:41:32;;;;;;;8.80;4.00;;;;;;;18.30;88.92;99986.44;108985;1260;71482;-65
2023/07/11 06:44:21;;;;;;;9.80;4.00;;;;;;;18.36;88.98;99986.57;109044;1256;66916;-65
2023/07/11 06:47:09;;;;;;;7.60;3.40;;;;;;;18.36;88.83;99990.23;109043;1257;72676;-64
2023/07/11 06:50:00;;;;;;;8.20;3.90;;;;;;;18.36;89.47;99988.48;109046;1257;57952;-65
2023/07/11 06:52:51;;;;;;;7.90;4.10;;;;;;;18.38;89.59;99985.42;109038;1258;58858;-65
2023/07/11 06:55:51;;;;;;;7.40;3.60;;;;;;;18.36;89.15;99986.86;109066;1258;72943;-64
2023/07/11 06:58:41;;;;;;;9.00;4.30;;;;;;;18.40;89.39;99984.87;109097;1257;67881;-64
2023/07/11 07:01:29;;;;;;;9.40;4.10;;;;;;;18.49;89.46;99979.16;109029;1257;72716;-65
2023/07/11 07:04:25;;;;;;;9.50;3.90;;;;;;;18.58;89.11;99979.77;108945;1258;59318;-67
2023/07/11 07:07:13;;;;;;;8.80;4.00;;;;;;;18.67;88.45;99976.36;109040;1257;61413;-65
2023/07/11 07:10:04;;;;;;;9.70;4.00;;;;;;;18.70;88.19;99976.20;109032;1257;74194;-66
2023/07/11 07:12:52;;;;;;;8.20;4.30;;;;;;;18.74;88.22;99976.67;109052;1257;68864;-66
2023/07/11 07:15:48;;;;;;;10.40;4.10;;;;;;;18.76;88.09;99979.00;108957;1257;71491;-66
2023/07/11 07:18:39;;;;;;;10.00;4.30;;;;;;;18.79;88.40;99978.80;109058;1258;60330;-67
2023/07/11 07:21:27;;;;;;;8.90;4.30;;;;;;;18.83;87.96;99983.44;108968;1257;57739;-65
2023/07/11 07:24:15;;;;;;;8.10;3.70;;;;;;;18.83;87.60;99980.38;108994;1257;72228;-64
2023/07/11 07:27:06;;;;;;;7.90;4.10;;;;;;;18.92;87.48;99980.64;109100;1259;67631;-65
2023/07/11 07:30:11;;;;;;;9.10;4.40;;;;;;;19.07;87.01;99976.21;109083;1257;71329;-63
2023/07/11 07:32:59;;;;;;;8.70;4.40;;;;;;;19.21;86.41;99971.85;109023;1258;57429;-64
2023/07/11 07:35:48;;;;;;;9.10;4.50;;;;;;;19.31;86.12;99972.40;109018;1258;60132;-70
2023/07/11 07:38:36;;;;;;;10.10;4.50;;;;;;;19.33;86.17;99976.80;109032;1259;74091;-66
2023/07/11 07:41:26;;;;;;;9.40;4.50;;;;;;;19.28;85.30;99972.21;108957;1257;66622;-66
2023/07/11 07:44:14;;;;;;;9.60;4.80;;;;;;;19.39;84.95;99973.96;108955;1257;73533;-65
2023/07/11 07:47:02;;;;;;;8.80;4.50;;;;;;;19.51;84.17;99971.62;108997;1257;57958;-67
2023/07/11 07:49:50;;;;;;;9.90;4.90;;;;;;;19.56;83.56;99974.10;108967;1257;59040;-64
2023/07/11 07:52:42;;;;;;;10.70;4.90;;;;;;;19.47;83.70;99978.05;109096;1260;73863;-68
2023/07/11 07:55:37;;;;;;;10.50;4.80;;;;;;;19.42;84.44;99977.98;108861;1257;68637;-66
2023/07/11 07:58:28;;;;;;;8.90;4.50;;;;;;;19.45;85.11;99979.25;108950;1258;72526;-66
2023/07/11 08:01:30;;;;;;;11.10;4.80;;;;;;;19.43;84.63;99979.98;108992;1259;57657;-67
2023/07/11 08:04:20;;;;;;;10.10;5.30;;;;;;;19.34;84.81;99977.60;109081;1258;59119;-66
2023/07/11 08:07:08;;;;;;;9.30;4.90;;;;;;;19.26;84.97;99978.86;109027;1258;72831;-64
2023/07/11 08:09:56;;;;;;;11.10;5.10;;;;;;;19.19;85.35;99977.65;109031;1257;68452;-66
2023/07/11 08:12:44;;;;;;;10.00;5.20;;;;;;;19.15;85.76;99981.36;109032;1258;72793;-65
2023/07/11 08:15:32;;;;;;;12.80;5.50;;;;;;;19.07;85.86;99984.17;109112;1258;57943;-64
2023/07/11 08:18:21;;;;;;;9.80;5.20;;;;;;;18.95;86.61;99982.48;109061;1258;60200;-65
2023/07/11 08:21:17;;;;;;;10.60;4.40;;;;;;;18.84;87.18;99985.23;109071;1257;73986;-63
2023/07/11 08:24:06;;;;;;;12.80;5.40;;;;;;;18.69;88.10;99982.58;109015;1259;68072;-65
2023/07/11 08:27:00;;;;;;;11.00;5.30;;;;;;;18.60;88.68;99987.81;109001;1257;72696;-68
2023/07/11 08:29:48;;;;;;;13.90;6.10;;;;;;;18.52;89.75;99988.67;108951;1257;60662;-65
2023/07/11 08:32:38;;;;;;;10.50;5.80;;;;;;;18.44;90.82;99993.38;108990;1259;60547;-67
2023/07/11 08:35:33;;;;;;;9.90;5.60;;;;;;;18.31;91.97;99996.58;108882;1257;73506;-67
2023/07/11 08:38:23;;;;;;;11.50;6.20;;;;;;;18.23;91.68;99989.59;108957;1257;66695;-67
2023/07/11 08:41:44;;;;;;;10.70;6.10;;;;;;;18.30;91.62;99992.56;108971;1257;73252;-66
2023/07/11 08:44:49;;;;;;;11.70;5.70;;;;;;;18.37;91.97;99989.96;108921;1257;59674;-65
2023/07/11 08:47:43;;;;;;;10.70;5.70;;;;;;;18.48;91.90;99989.70;109075;1257;60383;-66
2023/07/11 08:50:58;;;;;;;13.20;6.80;;;;;;;18.60;91.50;99985.27;109090;1256;72919;-67
2023/07/11 08:54:14;;;;;;;11.30;6.60;;;;;;;18.73;91.57;99985.64;109070;1256;67918;-68
2023/07/11 08:57:02;;;;;;;12.10;5.80;;;;;;;18.89;91.16;99985.05;109156;1256;72574;-66
2023/07/11 09:00:17;;;;;;;12.40;6.00;;;;;;;19.14;90.71;99979.87;109152;1256;59462;-66
2023/07/11 09:03:24;;;;;;;12.50;6.60;;;;;;;19.49;88.89;99980.95;109074;1256;60371;-66
2023/07/11 09:06:20;;;;;;;12.20;6.10;;;;;;;19.79;87.69;99985.70;109214;1256;71552;-68
2023/07/11 09:09:10;;;;;;;10.30;6.00;;;;;;;20.00;86.19;99982.11;109082;1256;67576;-69
2023/07/11 09:12:26;;;;;;;10.60;5.50;;;;;;;20.14;84.77;99984.61;109027;1257;72512;-70
2023/07/11 09:15:57;;;;;;;10.50;6.00;;;;;;;20.29;83.58;99982.80;109156;1256;57687;-67
2023/07/11 09:18:54;;;;;;;11.10;5.50;;;;;;;20.41;82.39;99983.23;109124;1257;58933;-67
2023/07/11 09:22:14;;;;;;;12.30;6.00;;;;;;;20.53;81.47;99982.58;109237;1257;73066;-66
2023/07/11 09:25:48;;;;;;;11.20;5.40;;;;;;;20.74;80.68;99982.53;109144;1256;67936;-67
2023/07/11 09:28:37;;;;;;;11.40;6.00;;;;;;;21.06;79.20;99979.15;108910;1263;73756;-64
2023/07/11 09:31:28;;;;;;;10.40;5.40;;;;;;;21.21;78.42;99975.96;108861;1262;57642;-66
2023/07/11 09:34:28;;;;;;;9.80;5.30;;;;;;;21.34;77.80;99969.48;108759;1261;60054;-69
2023/07/11 09:37:38;;;;;;;10.50;5.60;;;;;;;21.51;77.61;99966.50;108788;1263;73079;-70
2023/07/11 09:41:07;;;;;;;8.80;5.10;;;;;;;21.79;77.45;99967.48;108759;1263;67963;-69
2023/07/11 09:43:56;;;;;;;10.50;5.90;;;;;;;21.92;74.72;99966.63;108733;1264;72508;-66
2023/07/11 09:46:44;;;;;;;9.50;5.30;;;;;;;22.02;74.99;99972.95;108844;1263;57869;-65
2023/07/11 09:49:35;;;;;;;11.20;6.00;;;;;;;22.06;73.09;99970.03;108741;1263;58781;-66
2023/07/11 09:52:28;;;;;;;14.00;6.10;;;;;;;22.02;72.84;99970.61;108729;1262;72053;-64
2023/07/11 09:55:28;;;;;;;10.70;6.10;;;;;;;22.04;73.59;99973.02;108814;1262;67951;-66
2023/07/11 09:58:18;;;;;;;11.90;7.30;;;;;;;22.08;72.76;99978.60;108753;1263;72805;-66
2023/07/11 10:01:22;;;;;;;12.00;6.20;;;;;;;22.06;73.47;99973.88;108676;1262;57909;-64
2023/07/11 10:04:22;;;;;;;12.70;6.10;;;;;;;22.13;72.89;99976.13;108934;1258;60446;-64
2023/07/11 10:07:15;;;;;;;11.50;6.20;;;;;;;22.23;73.56;99975.87;109000;1257;71617;-64
2023/07/11 10:10:13;;;;;;;12.20;5.30;;;;;;;22.39;72.90;99975.80;108954;1259;68995;-65
2023/07/11 10:13:11;;;;;;;13.40;6.00;;;;;;;22.22;71.73;99978.58;109015;1262;72709;-66
2023/07/11 10:16:20;;;;;;;11.80;6.50;;;;;;;21.96;72.93;99976.61;108971;1258;59051;-68
2023/07/11 10:19:18;;;;;;;11.20;5.90;;;;;;;21.68;73.33;99975.56;108845;1262;59501;-66
2023/07/11 10:22:19;;;;;;;10.20;5.70;;;;;;;21.40;74.16;99977.95;108697;1262;74029;-70
2023/07/11 10:25:26;;;;;;;12.10;5.90;;;;;;;21.34;75.65;99975.85;108850;1261;67638;-67
2023/07/11 10:28:34;;;;;;;11.30;5.60;;;;;;;21.55;75.57;99973.17;108837;1263;72421;-68
2023/07/11 10:31:31;;;;;;;9.50;4.80;;;;;;;22.73;73.38;99970.20;108700;1262;60603;-67
2023/07/11 10:34:31;;;;;;;10.80;5.40;;;;;;;23.89;68.94;99970.08;108844;1261;59709;-69
2023/07/11 10:37:31;;;;;;;9.90;5.10;;;;;;;24.21;66.31;99970.33;108858;1262;73785;-65
2023/07/11 10:40:30;;;;;;;9.90;5.00;;;;;;;24.33;64.98;99968.42;108883;1261;68449;-67
2023/07/11 10:43:22;;;;;;;10.10;5.20;;;;;;;24.33;64.96;99966.25;108829;1264;71970;-68
2023/07/11 10:46:31;;;;;;;9.00;4.90;;;;;;;24.24;62.93;99962.76;108753;1264;57412;-65
2023/07/11 10:49:28;;;;;;;8.50;4.80;;;;;;;24.19;63.51;99962.63;108815;1257;61369;-66
2023/07/11 10:52:24;;;;;;;8.70;5.00;;;;;;;24.24;63.45;99954.13;109058;1258;74068;-66
2023/07/11 10:55:32;;;;;;;10.30;5.00;;;;;;;24.41;62.91;99939.16;109037;1258;67582;-69
2023/07/11 10:58:23;;;;;;;9.20;4.40;;;;;;;24.78;60.79;99934.59;109081;1257;72748;-66
2023/07/11 11:01:46;;;;;;;10.20;4.60;;;;;;;25.33;59.59;99934.69;109041;1257;57318;-67
2023/07/11 11:04:50;;;;;;;9.20;4.30;;;;;;;26.07;57.89;99935.14;109077;1257;59079;-65
2023/07/11 11:07:46;;;;;;;8.40;4.10;;;;;;;26.16;56.23;99937.52;108952;1257;73376;-67
2023/07/11 11:10:49;;;;;;;7.60;3.80;;;;;;;27.20;53.78;99928.71;108999;1261;67431;-68
2023/07/11 11:14:25;;;;;;;9.50;4.30;;;;;;;28.17;49.53;99922.33;109042;1261;71410;-64
2023/07/11 11:17:34;;;;;;;9.50;3.40;;;;;;;29.36;46.51;99917.64;109127;1257;57814;-65
2023/07/11 11:20:42;;;;;;;8.10;3.60;;;;;;;29.87;43.98;99914.23;109097;1257;58793;-64
2023/07/11 11:24:28;;;;;;;7.50;3.40;;;;;;;29.89;42.35;99911.67;109044;1257;72133;-67
2023/07/11 11:28:22;;;;;;;8.30;4.00;;;;;;;28.77;44.36;99918.71;109073;1257;68951;-66
2023/07/11 11:32:06;;;;;;;8.10;3.60;;;;;;;28.70;45.31;99915.07;109027;1257;72777;-69
2023/07/11 11:35:20;;;;;;;8.30;3.70;;;;;;;28.52;45.77;99911.95;109087;1257;58137;-68
2023/07/11 11:38:54;;;;;;;7.20;3.40;;;;;;;28.15;45.94;99911.36;109039;1257;59053;-67
2023/07/11 11:41:56;;;;;;;8.30;3.40;;;;;;;27.85;47.22;99916.17;109092;1257;72865;-67
2023/07/11 11:44:56;;;;;;;7.90;3.10;;;;;;;27.45;45.82;99910.35;109062;1257;66315;-68
2023/07/11 11:47:48;;;;;;;8.10;3.10;;;;;;;27.00;47.25;99908.66;108983;1257;72554;-66
2023/07/11 11:50:42;;;;;;;7.00;3.30;;;;;;;26.67;48.20;99909.59;109003;1256;57337;-67
2023/07/11 11:53:46;;;;;;;7.30;3.40;;;;;;;26.46;48.88;99912.65;109178;1257;61040;-68
2023/07/11 11:56:42;;;;;;;8.20;3.20;;;;;;;26.45;49.45;99909.21;109107;1257;72884;-67
2023/07/11 11:59:31;;;;;;;7.80;3.50;;;;;;;26.32;49.47;99910.04;109039;1257;68636;-67
2023/07/11 12:02:32;;;;;;;8.00;3.40;;;;;;;26.12;50.02;99906.60;109230;1256;72359;-68
2023/07/11 12:05:21;;;;;;;8.40;3.80;;;;;;;25.92;50.60;99899.14;109024;1256;57958;-64
2023/07/11 12:08:25;;;;;;;8.30;3.40;;;;;;;25.72;51.32;99903.77;109121;1257;60220;-65
2023/07/11 12:11:19;;;;;;;8.40;4.10;;;;;;;25.49;52.03;99902.56;109175;1256;74075;-67
2023/07/11 12:14:45;;;;;;;7.60;3.40;;;;;;;25.36;52.24;99897.82;109051;1258;68064;-68
2023/07/11 12:17:32;;;;;;;7.00;3.30;;;;;;;25.29;52.40;99897.29;109091;1256;72619;-68
2023/07/11 12:20:27;;;;;;;8.50;3.40;;;;;;;25.17;52.97;99892.95;109111;1257;57913;-68
2023/07/11 12:23:18;;;;;;;8.60;3.30;;;;;;;25.09;54.08;99888.62;109053;1256;60204;-65
2023/07/11 12:26:27;;;;;;;6.90;3.10;;;;;;;25.27;53.98;99890.17;108990;1256;251642;-68
2023/07/11 12:29:51;;;;;;;8.80;3.20;;;;;;;25.39;51.85;99886.30;109007;1257;66919;-66
2023/07/11 12:32:43;;;;;;;7.20;2.90;;;;;;;25.62;50.96;99880.79;109145;1256;72735;-65
2023/07/11 12:35:35;;;;;;;7.00;2.60;;;;;;;25.77;49.21;99879.11;109168;1256;57676;-66
2023/07/11 12:38:37;;;;;;;7.50;3.00;;;;;;;25.89;49.12;99882.52;109164;1257;60378;-66
2023/07/11 12:41:48;;;;;;;7.00;2.90;;;;;;;26.07;49.78;99880.86;109083;1257;74024;-67
2023/07/11 12:44:38;;;;;;;7.30;3.00;;;;;;;26.14;49.63;99883.42;109062;1257;68013;-63
2023/07/11 12:47:27;;;;;;;6.60;3.00;;;;;;;26.26;49.58;99888.04;109139;1256;72743;-64
2023/07/11 12:50:24;;;;;;;8.30;3.00;;;;;;;26.33;50.38;99889.64;109176;1256;57335;-64
2023/07/11 12:53:14;;;;;;;6.40;2.80;;;;;;;26.43;49.89;99886.95;109024;1256;60291;-64
2023/07/11 12:56:02;;;;;;;7.80;2.60;;;;;;;26.51;48.69;99884.46;109022;1256;72674;-66
2023/07/11 12:58:52;;;;;;;6.10;2.80;;;;;;;26.47;48.40;99885.93;109043;1257;67893;-65
2023/07/11 13:01:40;;;;;;;6.50;3.00;;;;;;;26.38;47.89;99891.06;109087;1257;73789;-66
2023/07/11 13:04:42;;;;;;;7.00;2.90;;;;;;;26.15;48.37;99892.56;109167;1256;58771;-65
2023/07/11 13:07:32;;;;;;;6.90;3.10;;;;;;;25.89;49.91;99894.13;109163;1256;60138;-63
2023/07/11 13:10:24;;;;;;;6.90;3.20;;;;;;;25.73;50.57;99892.61;109198;1257;74330;-64
2023/07/11 13:13:12;;;;;;;7.10;3.40;;;;;;;25.85;51.07;99890.52;109065;1257;66389;-65
2023/07/11 13:16:04;;;;;;;7.50;3.50;;;;;;;26.07;50.81;99893.80;109105;1257;72337;-65
2023/07/11 13:18:53;;;;;;;10.70;4.20;;;;;;;26.19;52.04;99901.41;109131;1256;57701;-64
2023/07/11 13:21:44;;;;;;;9.20;4.10;;;;;;;26.19;53.13;99906.04;109049;1256;59022;-65
2023/07/11 13:24:32;;;;;;;15.90;11.50;;;;;;;25.94;53.30;99905.04;109103;1256;72733;-66